createdAt,value
2023-03-31T00:00:34.885Z,2.90
2023-03-31T00:01:34.859Z,2.80
2023-03-31T00:02:34.992Z,2.80
2023-03-31T00:03:34.976Z,3.00
2023-03-31T00:04:34.931Z,2.90
2023-03-31T00:05:34.922Z,3.10
2023-03-31T00:06:35.737Z,2.90
2023-03-31T00:07:34.958Z,3.00
2023-03-31T00:08:34.976Z,3.10
2023-03-31T00:09:34.984Z,2.90
2023-03-31T00:10:35.002Z,2.70
2023-03-31T00:11:35.021Z,3.10
2023-03-31T00:12:35.063Z,2.90
2023-03-31T00:13:35.059Z,3.10
2023-03-31T00:14:35.070Z,3.00
2023-03-31T00:15:35.109Z,2.80
2023-03-31T00:16:35.200Z,3.10
2023-03-31T00:17:35.183Z,2.90
2023-03-31T00:18:35.144Z,3.00
2023-03-31T00:19:35.163Z,3.10
2023-03-31T00:20:35.175Z,3.00
2023-03-31T00:21:35.192Z,2.90
2023-03-31T00:22:35.201Z,2.90
2023-03-31T00:23:35.218Z,3.10
2023-03-31T00:24:35.234Z,2.70
2023-03-31T00:25:35.255Z,2.70
2023-03-31T00:26:35.275Z,2.90
2023-03-31T00:27:35.300Z,3.10
2023-03-31T00:28:35.315Z,2.80
2023-03-31T00:29:35.317Z,3.00
2023-03-31T00:30:35.341Z,3.00
2023-03-31T00:31:35.395Z,3.00
2023-03-31T00:32:35.392Z,2.90
2023-03-31T00:33:35.395Z,3.10
2023-03-31T00:34:35.399Z,3.10
2023-03-31T00:35:35.437Z,3.10
2023-03-31T00:36:35.434Z,3.20
2023-03-31T00:37:35.457Z,3.10
2023-03-31T00:38:35.468Z,2.90
2023-03-31T00:39:35.488Z,2.90
2023-03-31T00:40:35.499Z,2.80
2023-03-31T00:41:35.534Z,2.70
2023-03-31T00:42:35.541Z,3.00
2023-03-31T00:43:35.556Z,2.90
2023-03-31T00:44:35.565Z,3.10
2023-03-31T00:45:35.602Z,3.00
2023-03-31T00:46:35.609Z,2.90
2023-03-31T00:47:35.799Z,2.90
2023-03-31T00:48:35.638Z,2.90
2023-03-31T00:49:35.656Z,3.00
2023-03-31T00:50:35.666Z,3.10
2023-03-31T00:51:35.684Z,3.00
2023-03-31T00:52:35.722Z,3.00
2023-03-31T00:53:35.722Z,3.00
2023-03-31T00:54:35.793Z,3.20
2023-03-31T00:55:35.749Z,3.00
2023-03-31T00:56:35.784Z,3.10
2023-03-31T00:57:35.792Z,2.90
2023-03-31T00:58:35.823Z,2.70
2023-03-31T00:59:35.823Z,2.90
2023-03-31T01:00:35.850Z,3.00
2023-03-31T01:01:35.893Z,3.20
2023-03-31T01:02:35.895Z,3.00
2023-03-31T01:03:35.987Z,2.90
2023-03-31T01:04:35.898Z,3.00
2023-03-31T01:05:35.917Z,3.20
2023-03-31T01:06:35.940Z,3.00
2023-03-31T01:07:35.959Z,2.90
2023-03-31T01:08:35.978Z,2.80
2023-03-31T01:09:36.005Z,3.20
2023-03-31T01:10:36.000Z,3.30
2023-03-31T01:11:36.018Z,3.00
2023-03-31T01:12:36.041Z,2.90
2023-03-31T01:13:36.050Z,3.10
2023-03-31T01:14:36.067Z,2.80
2023-03-31T01:15:36.097Z,3.20
2023-03-31T01:16:36.225Z,3.20
2023-03-31T01:17:36.269Z,3.20
2023-03-31T01:18:36.176Z,3.00
2023-03-31T01:19:36.990Z,3.00
2023-03-31T01:20:36.186Z,2.90
2023-03-31T01:21:36.194Z,3.20
2023-03-31T01:22:36.202Z,3.30
2023-03-31T01:23:36.226Z,3.00
2023-03-31T01:24:36.237Z,3.00
2023-03-31T01:25:36.251Z,3.20
2023-03-31T01:26:36.267Z,2.80
2023-03-31T01:27:36.296Z,3.20
2023-03-31T01:28:36.310Z,3.00
2023-03-31T01:29:36.318Z,3.30
2023-03-31T01:30:36.347Z,3.00
2023-03-31T01:31:36.405Z,2.90
2023-03-31T01:32:36.402Z,3.10
2023-03-31T01:33:36.385Z,3.10
2023-03-31T01:34:36.406Z,3.10
2023-03-31T01:35:36.467Z,3.50
2023-03-31T01:36:36.448Z,3.10
2023-03-31T01:37:36.459Z,3.20
2023-03-31T01:38:36.473Z,3.00
2023-03-31T01:39:36.494Z,3.10
2023-03-31T01:40:36.504Z,3.20
2023-03-31T01:41:36.526Z,3.50
2023-03-31T01:42:36.542Z,3.00
2023-03-31T01:43:36.552Z,3.30
2023-03-31T01:44:36.568Z,3.30
2023-03-31T01:45:36.596Z,3.10
2023-03-31T01:46:36.675Z,3.20
2023-03-31T01:47:36.628Z,3.00
2023-03-31T01:48:36.639Z,3.30
2023-03-31T01:49:36.660Z,3.10
2023-03-31T01:50:36.675Z,3.00
2023-03-31T01:51:36.720Z,3.30
2023-03-31T01:52:36.717Z,3.20
2023-03-31T01:53:36.728Z,3.10
2023-03-31T01:54:36.735Z,3.40
2023-03-31T01:55:36.753Z,3.20
2023-03-31T01:56:36.768Z,3.20
2023-03-31T01:57:36.795Z,3.20
2023-03-31T01:58:36.814Z,3.10
2023-03-31T01:59:36.818Z,3.20
2023-03-31T02:00:36.843Z,3.30
2023-03-31T02:01:37.556Z,3.40
2023-03-31T02:02:36.945Z,3.20
2023-03-31T02:03:37.018Z,3.40
2023-03-31T02:04:36.902Z,3.10
2023-03-31T02:05:36.925Z,3.20
2023-03-31T02:06:36.938Z,3.10
2023-03-31T02:07:36.984Z,3.30
2023-03-31T02:08:36.980Z,3.10
2023-03-31T02:09:36.993Z,3.40
2023-03-31T02:10:37.006Z,3.20
2023-03-31T02:11:37.028Z,3.10
2023-03-31T02:12:37.042Z,3.30
2023-03-31T02:13:37.050Z,3.10
2023-03-31T02:14:37.070Z,3.30
2023-03-31T02:15:37.086Z,3.10
2023-03-31T02:16:37.130Z,3.00
2023-03-31T02:17:37.205Z,3.30
2023-03-31T02:18:37.140Z,3.40
2023-03-31T02:19:37.157Z,3.50
2023-03-31T02:20:37.178Z,3.30
2023-03-31T02:21:37.182Z,3.50
2023-03-31T02:22:37.218Z,3.20
2023-03-31T02:23:37.247Z,3.30
2023-03-31T02:24:37.313Z,3.60
2023-03-31T02:25:37.289Z,3.60
2023-03-31T02:26:37.265Z,3.20
2023-03-31T02:27:37.286Z,3.40
2023-03-31T02:28:37.333Z,3.30
2023-03-31T02:29:37.319Z,3.40
2023-03-31T02:30:37.332Z,3.60
2023-03-31T02:31:37.385Z,3.40
2023-03-31T02:32:37.393Z,3.30
2023-03-31T02:33:37.395Z,3.50
2023-03-31T02:34:37.414Z,3.40
2023-03-31T02:35:37.432Z,3.60
2023-03-31T02:36:37.432Z,3.30
2023-03-31T02:37:37.464Z,3.40
2023-03-31T02:38:37.464Z,3.50
2023-03-31T02:39:37.515Z,3.30
2023-03-31T02:40:37.497Z,3.20
2023-03-31T02:41:37.520Z,3.00
2023-03-31T02:42:37.544Z,3.30
2023-03-31T02:43:37.576Z,3.10
2023-03-31T02:44:37.671Z,2.90
2023-03-31T02:45:37.648Z,3.30
2023-03-31T02:46:37.622Z,3.40
2023-03-31T02:47:37.647Z,3.50
2023-03-31T02:48:37.632Z,3.10
2023-03-31T02:49:37.653Z,3.30
2023-03-31T02:50:37.674Z,3.10
2023-03-31T02:51:37.704Z,3.20
2023-03-31T02:52:37.697Z,3.00
2023-03-31T02:53:37.713Z,3.40
2023-03-31T02:54:37.755Z,3.30
2023-03-31T02:55:37.774Z,3.00
2023-03-31T02:56:37.767Z,3.30
2023-03-31T02:57:37.793Z,3.40
2023-03-31T02:58:37.795Z,3.20
2023-03-31T02:59:37.812Z,3.20
2023-03-31T03:00:37.835Z,3.40
2023-03-31T03:01:37.888Z,3.30
2023-03-31T03:02:37.957Z,3.50
2023-03-31T03:03:37.927Z,3.10
2023-03-31T03:04:37.921Z,3.00
2023-03-31T03:05:37.917Z,3.20
2023-03-31T03:06:37.927Z,3.80
2023-03-31T03:07:38.043Z,3.90
2023-03-31T03:08:37.959Z,3.90
2023-03-31T03:09:37.979Z,3.60
2023-03-31T03:10:37.993Z,3.50
2023-03-31T03:11:38.030Z,3.30
2023-03-31T03:12:38.045Z,3.50
2023-03-31T03:13:38.043Z,3.30
2023-03-31T03:14:38.057Z,3.80
2023-03-31T03:15:38.089Z,3.60
2023-03-31T03:16:38.188Z,3.60
2023-03-31T03:17:38.149Z,3.70
2023-03-31T03:18:38.135Z,3.80
2023-03-31T03:19:38.149Z,3.60
2023-03-31T03:20:38.165Z,3.80
2023-03-31T03:21:38.179Z,3.60
2023-03-31T03:22:38.201Z,3.80
2023-03-31T03:23:38.214Z,3.80
2023-03-31T03:24:38.223Z,3.90
2023-03-31T03:25:38.239Z,3.60
2023-03-31T03:26:38.264Z,3.80
2023-03-31T03:27:38.307Z,4.10
2023-03-31T03:28:38.298Z,3.90
2023-03-31T03:29:38.312Z,3.70
2023-03-31T03:30:38.411Z,3.80
2023-03-31T03:31:38.343Z,3.70
2023-03-31T03:32:38.406Z,3.80
2023-03-31T03:33:38.372Z,4.00
2023-03-31T03:34:38.397Z,3.80
2023-03-31T03:35:38.442Z,3.60
2023-03-31T03:36:38.440Z,3.90
2023-03-31T03:37:38.448Z,3.90
2023-03-31T03:38:38.461Z,3.80
2023-03-31T03:39:38.480Z,3.80
2023-03-31T03:40:38.494Z,3.70
2023-03-31T03:41:38.503Z,3.90
2023-03-31T03:42:38.603Z,3.80
2023-03-31T03:43:38.560Z,3.90
2023-03-31T03:44:38.551Z,3.90
2023-03-31T03:45:38.591Z,3.90
2023-03-31T03:46:38.612Z,3.90
2023-03-31T03:47:38.638Z,3.70
2023-03-31T03:48:38.631Z,3.70
2023-03-31T03:49:38.640Z,4.00
2023-03-31T03:50:38.680Z,3.90
2023-03-31T03:51:38.676Z,3.90
2023-03-31T03:52:38.686Z,3.60
2023-03-31T03:53:38.705Z,4.10
2023-03-31T03:54:38.721Z,3.80
2023-03-31T03:55:38.732Z,3.80
2023-03-31T03:56:38.745Z,4.00
2023-03-31T03:57:38.772Z,3.90
2023-03-31T03:58:38.787Z,4.00
2023-03-31T03:59:38.821Z,3.90
2023-03-31T04:00:38.809Z,3.90
2023-03-31T04:01:38.840Z,3.80
2023-03-31T04:02:38.899Z,3.70
2023-03-31T04:03:38.866Z,3.60
2023-03-31T04:04:38.917Z,3.70
2023-03-31T04:05:38.893Z,3.80
2023-03-31T04:06:38.915Z,4.00
2023-03-31T04:07:38.936Z,4.10
2023-03-31T04:08:38.951Z,3.90
2023-03-31T04:09:38.961Z,4.10
2023-03-31T04:10:38.981Z,4.10
2023-03-31T04:11:38.994Z,3.90
2023-03-31T04:12:39.004Z,4.00
2023-03-31T04:13:39.030Z,3.90
2023-03-31T04:14:39.037Z,4.00
2023-03-31T04:15:39.084Z,3.90
2023-03-31T04:16:39.075Z,3.80
2023-03-31T04:17:39.102Z,3.80
2023-03-31T04:18:39.102Z,4.00
2023-03-31T04:19:39.119Z,4.30
2023-03-31T04:20:39.543Z,4.10
2023-03-31T04:21:39.160Z,4.00
2023-03-31T04:22:39.172Z,4.00
2023-03-31T04:23:39.186Z,4.20
2023-03-31T04:24:39.203Z,3.80
2023-03-31T04:25:39.283Z,4.00
2023-03-31T04:26:39.265Z,3.80
2023-03-31T04:27:39.248Z,4.10
2023-03-31T04:28:39.262Z,4.10
2023-03-31T04:29:39.278Z,3.90
2023-03-31T04:30:39.295Z,4.20
2023-03-31T04:31:39.371Z,4.00
2023-03-31T04:32:39.356Z,3.90
2023-03-31T04:33:39.359Z,4.00
2023-03-31T04:34:39.361Z,3.90
2023-03-31T04:35:39.395Z,4.00
2023-03-31T04:36:39.492Z,4.10
2023-03-31T04:37:39.431Z,3.90
2023-03-31T04:38:39.432Z,4.10
2023-03-31T04:39:39.448Z,3.80
2023-03-31T04:40:39.460Z,3.90
2023-03-31T04:41:39.482Z,4.00
2023-03-31T04:42:39.501Z,3.90
2023-03-31T04:43:39.506Z,4.00
2023-03-31T04:44:39.521Z,3.90
2023-03-31T04:45:39.834Z,4.10
2023-03-31T04:46:39.570Z,3.80
2023-03-31T04:47:39.632Z,4.00
2023-03-31T04:48:39.584Z,4.40
2023-03-31T04:49:39.606Z,3.90
2023-03-31T04:50:39.636Z,3.90
2023-03-31T04:51:39.638Z,4.30
2023-03-31T04:52:39.658Z,4.00
2023-03-31T04:53:39.675Z,4.10
2023-03-31T04:54:39.708Z,3.90
2023-03-31T04:55:39.706Z,4.20
2023-03-31T04:56:39.721Z,4.10
2023-03-31T04:57:39.739Z,3.80
2023-03-31T04:58:39.746Z,4.30
2023-03-31T04:59:39.771Z,4.10
2023-03-31T05:00:39.780Z,3.90
2023-03-31T05:01:39.814Z,4.00
2023-03-31T05:02:39.924Z,4.10
2023-03-31T05:03:39.885Z,3.90
2023-03-31T05:04:39.855Z,4.00
2023-03-31T05:05:39.872Z,3.70
2023-03-31T05:06:39.885Z,3.70
2023-03-31T05:07:39.909Z,3.60
2023-03-31T05:08:39.920Z,3.90
2023-03-31T05:09:39.932Z,4.20
2023-03-31T05:10:39.952Z,4.10
2023-03-31T05:11:39.975Z,3.90
2023-03-31T05:12:40.005Z,3.90
2023-03-31T05:13:40.010Z,4.10
2023-03-31T05:14:40.015Z,3.80
2023-03-31T05:15:40.036Z,4.00
2023-03-31T05:16:40.079Z,4.30
2023-03-31T05:17:40.105Z,3.90
2023-03-31T05:18:40.084Z,4.10
2023-03-31T05:19:40.128Z,3.90
2023-03-31T05:20:40.113Z,4.00
2023-03-31T05:21:40.186Z,4.10
2023-03-31T05:22:42.484Z,4.10
2023-03-31T05:23:40.165Z,4.10
2023-03-31T05:24:40.187Z,4.20
2023-03-31T05:25:40.197Z,4.40
2023-03-31T05:26:40.220Z,3.90
2023-03-31T05:27:40.230Z,4.10
2023-03-31T05:28:40.244Z,4.10
2023-03-31T05:29:40.274Z,4.50
2023-03-31T05:30:40.285Z,4.00
2023-03-31T05:31:40.355Z,4.30
2023-03-31T05:32:40.321Z,4.20
2023-03-31T05:33:40.481Z,4.30
2023-03-31T05:34:40.344Z,4.30
2023-03-31T05:35:40.441Z,4.30
2023-03-31T05:36:40.391Z,4.40
2023-03-31T05:37:40.395Z,4.30
2023-03-31T05:38:40.415Z,4.40
2023-03-31T05:39:40.434Z,4.50
2023-03-31T05:40:40.438Z,4.10
2023-03-31T05:41:40.472Z,4.20
2023-03-31T05:42:40.478Z,4.30
2023-03-31T05:43:40.493Z,4.30
2023-03-31T05:44:40.508Z,4.30
2023-03-31T05:45:40.521Z,4.00
2023-03-31T05:46:40.701Z,4.00
2023-03-31T05:47:40.662Z,4.70
2023-03-31T05:48:40.565Z,4.40
2023-03-31T05:49:40.592Z,4.10
2023-03-31T05:50:40.614Z,4.20
2023-03-31T05:51:40.642Z,4.40
2023-03-31T05:52:40.640Z,4.00
2023-03-31T05:53:40.655Z,4.30
2023-03-31T05:54:40.670Z,4.30
2023-03-31T05:55:40.688Z,4.40
2023-03-31T05:56:40.705Z,4.20
2023-03-31T05:57:40.722Z,4.40
2023-03-31T05:58:40.730Z,4.20
2023-03-31T05:59:40.761Z,4.30
2023-03-31T06:00:40.761Z,4.10
2023-03-31T06:01:40.852Z,4.40
2023-03-31T06:02:40.914Z,4.20
2023-03-31T06:03:40.916Z,4.20
2023-03-31T06:04:40.981Z,4.20
2023-03-31T06:05:40.844Z,4.50
2023-03-31T06:06:40.872Z,4.20
2023-03-31T06:07:40.900Z,4.00
2023-03-31T06:08:40.890Z,4.30
2023-03-31T06:09:40.925Z,4.50
2023-03-31T06:10:40.923Z,4.30
2023-03-31T06:11:40.946Z,4.80
2023-03-31T06:12:40.986Z,4.30
2023-03-31T06:13:40.982Z,4.50
2023-03-31T06:14:41.086Z,4.30
2023-03-31T06:15:41.041Z,4.60
2023-03-31T06:16:41.025Z,4.60
2023-03-31T06:17:41.088Z,4.60
2023-03-31T06:18:41.065Z,4.40
2023-03-31T06:19:41.076Z,4.50
2023-03-31T06:20:41.182Z,4.40
2023-03-31T06:21:41.109Z,4.30
2023-03-31T06:22:41.116Z,4.30
2023-03-31T06:23:41.183Z,4.10
2023-03-31T06:24:41.171Z,4.50
2023-03-31T06:25:50.479Z,4.50
2023-03-31T06:26:41.281Z,4.30
2023-03-31T06:27:41.204Z,4.40
2023-03-31T06:28:41.214Z,4.50
2023-03-31T06:29:41.238Z,4.40
2023-03-31T06:30:41.259Z,4.40
2023-03-31T06:31:41.342Z,4.50
2023-03-31T06:32:41.315Z,4.20
2023-03-31T06:33:41.303Z,4.60
2023-03-31T06:34:41.325Z,4.40
2023-03-31T06:35:41.368Z,4.30
2023-03-31T06:36:41.340Z,4.70
2023-03-31T06:37:41.355Z,4.80
2023-03-31T06:38:41.386Z,4.40
2023-03-31T06:39:41.424Z,4.60
2023-03-31T06:40:41.412Z,4.30
2023-03-31T06:41:41.433Z,4.00
2023-03-31T06:42:41.436Z,4.40
2023-03-31T06:43:41.458Z,4.50
2023-03-31T06:44:41.485Z,4.50
2023-03-31T06:45:41.522Z,4.30
2023-03-31T06:46:41.628Z,4.40
2023-03-31T06:47:41.633Z,4.00
2023-03-31T06:48:41.578Z,4.30
2023-03-31T06:49:41.555Z,4.40
2023-03-31T06:50:41.673Z,4.10
2023-03-31T06:51:41.581Z,4.20
2023-03-31T06:52:41.606Z,4.50
2023-03-31T06:53:41.612Z,4.30
2023-03-31T06:54:41.629Z,4.10
2023-03-31T06:55:41.703Z,3.90
2023-03-31T06:56:41.760Z,4.10
2023-03-31T06:57:41.683Z,4.30
2023-03-31T06:58:41.701Z,4.30
2023-03-31T06:59:41.716Z,4.20
2023-03-31T07:00:41.724Z,4.30
2023-03-31T07:01:41.790Z,4.50
2023-03-31T07:02:41.800Z,4.00
2023-03-31T07:03:41.801Z,4.10
2023-03-31T07:04:41.788Z,4.60
2023-03-31T07:05:41.813Z,4.30
2023-03-31T07:06:41.827Z,4.40
2023-03-31T07:07:42.703Z,4.20
2023-03-31T07:08:41.851Z,4.50
2023-03-31T07:09:41.868Z,4.30
2023-03-31T07:10:41.891Z,4.20
2023-03-31T07:11:41.935Z,4.10
2023-03-31T07:12:41.915Z,4.20
2023-03-31T07:13:41.932Z,4.20
2023-03-31T07:14:41.957Z,4.10
2023-03-31T07:15:41.972Z,4.60
2023-03-31T07:16:42.029Z,4.00
2023-03-31T07:17:42.158Z,4.40
2023-03-31T07:18:42.073Z,4.20
2023-03-31T07:19:42.031Z,4.10
2023-03-31T07:20:42.048Z,4.40
2023-03-31T07:21:42.069Z,4.40
2023-03-31T07:22:42.074Z,4.30
2023-03-31T07:23:42.091Z,4.40
2023-03-31T07:24:42.107Z,4.30
2023-03-31T07:25:42.128Z,4.30
2023-03-31T07:26:42.153Z,4.30
2023-03-31T07:27:42.175Z,4.00
2023-03-31T07:28:42.181Z,4.30
2023-03-31T07:29:42.196Z,4.10
2023-03-31T07:30:42.231Z,4.30
2023-03-31T07:31:42.255Z,4.30
2023-03-31T07:32:42.282Z,4.30
2023-03-31T07:33:42.267Z,4.40
2023-03-31T07:34:42.268Z,4.30
2023-03-31T07:35:42.332Z,4.40
2023-03-31T07:36:42.358Z,4.40
2023-03-31T07:37:42.313Z,4.50
2023-03-31T07:38:42.344Z,4.20
2023-03-31T07:39:42.354Z,4.30
2023-03-31T07:40:42.369Z,4.40
2023-03-31T07:41:42.379Z,4.20
2023-03-31T07:42:42.394Z,4.10
2023-03-31T07:43:42.452Z,4.40
2023-03-31T07:44:42.433Z,4.20
2023-03-31T07:45:42.461Z,4.30
2023-03-31T07:46:42.533Z,4.00
2023-03-31T07:47:42.490Z,4.30
2023-03-31T07:48:42.511Z,4.30
2023-03-31T07:49:42.511Z,4.20
2023-03-31T07:50:42.539Z,4.20
2023-03-31T07:51:42.549Z,4.10
2023-03-31T07:52:44.783Z,4.40
2023-03-31T07:53:42.586Z,4.30
2023-03-31T07:54:42.588Z,4.20
2023-03-31T07:55:42.602Z,4.10
2023-03-31T07:56:42.753Z,3.80
2023-03-31T07:57:42.635Z,4.10
2023-03-31T07:58:42.657Z,3.90
2023-03-31T07:59:42.694Z,4.10
2023-03-31T08:00:42.688Z,4.30
2023-03-31T08:01:42.758Z,4.30
2023-03-31T08:02:42.913Z,4.10
2023-03-31T08:03:42.769Z,4.10
2023-03-31T08:04:42.752Z,4.20
2023-03-31T08:05:42.770Z,3.80
2023-03-31T08:06:42.796Z,4.00
2023-03-31T08:07:42.803Z,4.10
2023-03-31T08:08:42.810Z,4.50
2023-03-31T08:09:42.832Z,4.00
2023-03-31T08:10:42.863Z,4.10
2023-03-31T08:11:43.436Z,4.10
2023-03-31T08:12:42.877Z,4.00
2023-03-31T08:13:42.894Z,4.40
2023-03-31T08:14:42.913Z,4.20
2023-03-31T08:15:43.013Z,4.10
2023-03-31T08:16:43.027Z,4.00
2023-03-31T08:17:43.038Z,4.00
2023-03-31T08:18:42.991Z,4.10
2023-03-31T08:19:42.982Z,4.00
2023-03-31T08:20:43.000Z,4.20
2023-03-31T08:21:43.016Z,4.10
2023-03-31T08:22:43.032Z,4.00
2023-03-31T08:23:43.160Z,4.00
2023-03-31T08:24:43.082Z,3.90
2023-03-31T08:25:43.083Z,3.80
2023-03-31T08:26:43.107Z,3.90
2023-03-31T08:27:43.136Z,4.00
2023-03-31T08:28:43.127Z,4.00
2023-03-31T08:29:43.148Z,4.00
2023-03-31T08:30:43.184Z,3.80
2023-03-31T08:31:43.266Z,4.10
2023-03-31T08:32:43.275Z,4.10
2023-03-31T08:33:43.212Z,4.00
2023-03-31T08:34:43.225Z,3.90
2023-03-31T08:35:43.278Z,4.00
2023-03-31T08:36:43.271Z,3.90
2023-03-31T08:37:43.280Z,3.80
2023-03-31T08:38:43.293Z,4.10
2023-03-31T08:39:43.318Z,3.80
2023-03-31T08:40:43.317Z,3.80
2023-03-31T08:41:43.339Z,3.90
2023-03-31T08:42:43.350Z,4.00
2023-03-31T08:43:43.370Z,4.40
2023-03-31T08:44:43.381Z,3.90
2023-03-31T08:45:43.425Z,3.90
2023-03-31T08:46:43.417Z,3.80
2023-03-31T08:47:43.515Z,3.70
2023-03-31T08:48:43.445Z,3.90
2023-03-31T08:49:43.462Z,3.90
2023-03-31T08:50:43.505Z,3.60
2023-03-31T08:51:43.498Z,4.20
2023-03-31T08:52:43.511Z,3.90
2023-03-31T08:53:43.646Z,4.00
2023-03-31T08:54:43.545Z,3.80
2023-03-31T08:55:43.558Z,3.70
2023-03-31T08:56:43.638Z,3.80
2023-03-31T08:57:45.346Z,3.80
2023-03-31T08:58:43.604Z,3.90
2023-03-31T08:59:43.631Z,3.80
2023-03-31T09:00:43.670Z,3.80
2023-03-31T09:01:52.768Z,4.00
2023-03-31T09:02:43.789Z,3.90
2023-03-31T09:03:43.836Z,3.90
2023-03-31T09:04:43.708Z,3.90
2023-03-31T09:05:57.258Z,3.90
2023-03-31T09:06:43.738Z,4.10
2023-03-31T09:07:43.754Z,3.70
2023-03-31T09:08:43.764Z,4.00
2023-03-31T09:09:43.790Z,3.90
2023-03-31T09:10:43.796Z,3.80
2023-03-31T09:11:43.814Z,4.00
2023-03-31T09:12:43.834Z,3.90
2023-03-31T09:13:43.844Z,3.80
2023-03-31T09:14:43.859Z,4.10
2023-03-31T09:15:43.886Z,3.90
2023-03-31T09:16:43.974Z,3.70
2023-03-31T09:17:43.966Z,3.70
2023-03-31T09:18:43.930Z,3.90
2023-03-31T09:19:43.974Z,4.00
2023-03-31T09:20:43.955Z,3.70
2023-03-31T09:21:43.977Z,3.90
2023-03-31T09:22:43.992Z,3.70
2023-03-31T09:23:44.040Z,4.10
2023-03-31T09:24:44.025Z,3.80
2023-03-31T09:25:44.036Z,3.80
2023-03-31T09:26:44.051Z,4.10
2023-03-31T09:27:44.087Z,3.60
2023-03-31T09:28:44.081Z,3.80
2023-03-31T09:29:44.097Z,3.90
2023-03-31T09:30:44.129Z,3.70
2023-03-31T09:31:44.148Z,3.70
2023-03-31T09:32:44.160Z,3.60
2023-03-31T09:33:44.168Z,3.90
2023-03-31T09:34:44.179Z,3.80
2023-03-31T09:35:46.237Z,3.90
2023-03-31T09:36:44.210Z,3.90
2023-03-31T09:37:44.226Z,3.90
2023-03-31T09:38:44.243Z,3.90
2023-03-31T09:39:44.266Z,3.90
2023-03-31T09:40:44.290Z,4.00
2023-03-31T09:41:44.308Z,3.70
2023-03-31T09:42:44.305Z,3.80
2023-03-31T09:43:44.329Z,3.80
2023-03-31T09:44:44.346Z,3.60
2023-03-31T09:45:52.074Z,3.70
2023-03-31T09:46:44.447Z,3.70
2023-03-31T09:47:44.444Z,3.80
2023-03-31T09:48:44.419Z,3.90
2023-03-31T09:49:54.028Z,3.70
2023-03-31T09:50:44.432Z,3.70
2023-03-31T09:51:44.468Z,3.70
2023-03-31T09:52:44.473Z,3.80
2023-03-31T09:53:44.479Z,4.10
2023-03-31T09:54:44.509Z,3.80
2023-03-31T09:55:44.555Z,3.60
2023-03-31T09:56:44.574Z,3.80
2023-03-31T09:57:44.551Z,3.90
2023-03-31T09:58:44.561Z,3.70
2023-03-31T09:59:44.576Z,3.80
2023-03-31T10:00:44.603Z,3.60
2023-03-31T10:01:44.682Z,3.90
2023-03-31T10:02:44.636Z,3.90
2023-03-31T10:03:44.700Z,3.70
2023-03-31T10:04:44.654Z,3.60
2023-03-31T10:05:44.672Z,3.70
2023-03-31T10:06:44.692Z,3.70
2023-03-31T10:07:44.723Z,4.00
2023-03-31T10:08:44.720Z,3.50
2023-03-31T10:09:44.742Z,3.70
2023-03-31T10:10:44.761Z,3.90
2023-03-31T10:11:44.765Z,3.50
2023-03-31T10:12:44.823Z,3.70
2023-03-31T10:13:44.808Z,3.70
2023-03-31T10:14:44.818Z,3.70
2023-03-31T10:15:44.885Z,3.60
2023-03-31T10:16:44.847Z,3.90
2023-03-31T10:17:54.732Z,3.70
2023-03-31T10:18:44.880Z,4.10
2023-03-31T10:19:44.892Z,4.00
2023-03-31T10:20:44.915Z,3.80
2023-03-31T10:21:44.925Z,3.80
2023-03-31T10:22:44.956Z,3.90
2023-03-31T10:23:44.987Z,3.70
2023-03-31T10:24:44.975Z,3.90
2023-03-31T10:25:44.995Z,3.60
2023-03-31T10:26:45.008Z,3.90
2023-03-31T10:27:45.029Z,3.70
2023-03-31T10:28:45.038Z,4.00
2023-03-31T10:29:45.050Z,3.70
2023-03-31T10:30:45.063Z,3.90
2023-03-31T10:31:45.114Z,4.00
2023-03-31T10:32:46.739Z,3.90
2023-03-31T10:33:45.238Z,4.00
2023-03-31T10:34:45.137Z,3.80
2023-03-31T10:35:45.164Z,4.00
2023-03-31T10:36:45.158Z,4.00
2023-03-31T10:37:45.182Z,3.80
2023-03-31T10:38:45.301Z,4.10
2023-03-31T10:39:45.223Z,3.80
2023-03-31T10:40:45.243Z,4.20
2023-03-31T10:41:45.240Z,4.00
2023-03-31T10:42:45.250Z,4.20
2023-03-31T10:43:45.274Z,4.10
2023-03-31T10:44:45.280Z,4.20
2023-03-31T10:45:45.307Z,4.10
2023-03-31T10:46:45.344Z,4.30
2023-03-31T10:47:45.380Z,4.20
2023-03-31T10:48:45.346Z,4.10
2023-03-31T10:49:45.370Z,4.60
2023-03-31T10:50:45.388Z,4.30
2023-03-31T10:51:45.390Z,4.10
2023-03-31T10:52:45.403Z,4.10
2023-03-31T10:53:45.426Z,4.10
2023-03-31T10:54:45.436Z,4.30
2023-03-31T10:55:45.481Z,4.50
2023-03-31T10:56:47.861Z,4.50
2023-03-31T10:57:45.482Z,4.40
2023-03-31T10:58:58.123Z,4.20
2023-03-31T10:59:45.523Z,4.10
2023-03-31T11:00:45.531Z,4.70
2023-03-31T11:01:45.743Z,4.40
2023-03-31T11:02:45.645Z,4.30
2023-03-31T11:03:45.663Z,4.50
2023-03-31T11:04:45.603Z,4.20
2023-03-31T11:05:45.608Z,4.40
2023-03-31T11:06:45.631Z,4.40
2023-03-31T11:07:45.662Z,4.40
2023-03-31T11:08:45.667Z,4.30
2023-03-31T11:09:45.680Z,4.40
2023-03-31T11:10:45.697Z,4.30
2023-03-31T11:11:45.722Z,4.40
2023-03-31T11:12:45.727Z,4.20
2023-03-31T11:13:45.736Z,4.40
2023-03-31T11:14:45.757Z,4.50
2023-03-31T11:15:45.800Z,4.30
2023-03-31T11:16:45.803Z,4.20
2023-03-31T11:17:45.854Z,4.30
2023-03-31T11:18:45.845Z,4.50
2023-03-31T11:19:45.840Z,4.40
2023-03-31T11:20:45.844Z,4.60
2023-03-31T11:21:45.867Z,4.30
2023-03-31T11:22:45.884Z,4.20
2023-03-31T11:23:45.903Z,4.10
2023-03-31T11:24:45.914Z,4.30
2023-03-31T11:25:45.929Z,4.60
2023-03-31T11:26:45.947Z,4.40
2023-03-31T11:27:45.985Z,4.70
2023-03-31T11:28:45.978Z,4.50
2023-03-31T11:29:45.997Z,4.60
2023-03-31T11:30:46.022Z,4.50
2023-03-31T11:31:46.082Z,4.80
2023-03-31T11:32:46.058Z,4.60
2023-03-31T11:33:46.067Z,4.50
2023-03-31T11:34:46.063Z,4.30
2023-03-31T11:35:46.138Z,4.30
2023-03-31T11:36:46.101Z,4.20
2023-03-31T11:37:46.120Z,4.40
2023-03-31T11:38:46.129Z,4.40
2023-03-31T11:39:46.150Z,5.10
2023-03-31T11:40:46.195Z,4.20
2023-03-31T11:41:46.177Z,4.50
2023-03-31T11:42:46.196Z,4.20
2023-03-31T11:43:46.251Z,4.40
2023-03-31T11:44:46.232Z,4.70
2023-03-31T11:45:46.273Z,4.50
2023-03-31T11:46:46.258Z,4.50
2023-03-31T11:47:46.325Z,4.50
2023-03-31T11:48:46.296Z,4.70
2023-03-31T11:49:46.304Z,4.20
2023-03-31T11:50:46.318Z,4.80
2023-03-31T11:51:46.349Z,4.50
2023-03-31T11:52:46.351Z,4.40
2023-03-31T11:53:46.369Z,4.20
2023-03-31T11:54:46.420Z,4.40
2023-03-31T11:55:46.405Z,4.30
2023-03-31T11:56:46.518Z,4.30
2023-03-31T11:57:46.567Z,4.40
2023-03-31T11:58:46.562Z,4.40
2023-03-31T11:59:46.669Z,4.40
2023-03-31T12:00:46.586Z,4.30
2023-03-31T12:01:46.539Z,4.20
2023-03-31T12:02:46.595Z,4.80
2023-03-31T12:03:46.575Z,4.50
2023-03-31T12:04:46.569Z,4.40
2023-03-31T12:05:46.590Z,4.20
2023-03-31T12:06:46.600Z,4.40
2023-03-31T12:07:46.595Z,4.30
2023-03-31T12:08:46.616Z,4.50
2023-03-31T12:09:46.632Z,4.70
2023-03-31T12:10:46.634Z,4.30
2023-03-31T12:11:46.648Z,4.40
2023-03-31T12:12:46.685Z,4.60
2023-03-31T12:13:46.695Z,4.60
2023-03-31T12:14:46.708Z,4.50
2023-03-31T12:15:46.800Z,4.10
2023-03-31T12:16:46.726Z,4.30
2023-03-31T12:17:46.802Z,5.00
2023-03-31T12:18:46.762Z,4.60
2023-03-31T12:19:46.786Z,4.50
2023-03-31T12:20:46.791Z,4.70
2023-03-31T12:21:46.805Z,4.40
2023-03-31T12:22:46.829Z,4.90
2023-03-31T12:23:46.837Z,4.80
2023-03-31T12:24:46.853Z,4.80
2023-03-31T12:25:46.873Z,4.40
2023-03-31T12:26:46.886Z,4.60
2023-03-31T12:27:46.915Z,4.40
2023-03-31T12:28:46.925Z,5.70
2023-03-31T12:29:46.940Z,4.70
2023-03-31T12:30:46.956Z,5.20
2023-03-31T12:31:47.041Z,4.90
2023-03-31T12:32:46.998Z,4.70
2023-03-31T12:33:47.010Z,4.50
2023-03-31T12:34:47.025Z,4.80
2023-03-31T12:35:47.119Z,4.80
2023-03-31T12:36:47.050Z,4.70
2023-03-31T12:37:47.067Z,4.50
2023-03-31T12:38:47.090Z,4.40
2023-03-31T12:39:47.099Z,4.70
2023-03-31T12:40:47.116Z,4.60
2023-03-31T12:41:47.131Z,4.80
2023-03-31T12:42:47.148Z,4.60
2023-03-31T12:43:47.156Z,4.70
2023-03-31T12:44:47.192Z,4.40
2023-03-31T12:45:47.187Z,5.00
2023-03-31T12:46:47.265Z,4.40
2023-03-31T12:47:47.265Z,4.90
2023-03-31T12:48:47.240Z,4.70
2023-03-31T12:49:47.275Z,4.90
2023-03-31T12:50:47.267Z,4.60
2023-03-31T12:51:47.287Z,4.60
2023-03-31T12:52:47.307Z,4.70
2023-03-31T12:53:47.322Z,4.80
2023-03-31T12:54:47.338Z,4.40
2023-03-31T12:55:47.350Z,4.70
2023-03-31T12:56:47.419Z,4.40
2023-03-31T12:57:47.389Z,4.60
2023-03-31T12:58:47.407Z,4.40
2023-03-31T12:59:47.419Z,4.30
2023-03-31T13:00:47.450Z,4.50
2023-03-31T13:01:47.505Z,4.60
2023-03-31T13:02:47.689Z,4.50
2023-03-31T13:03:47.504Z,4.70
2023-03-31T13:04:47.496Z,4.80
2023-03-31T13:05:47.516Z,4.50
2023-03-31T13:06:47.526Z,4.60
2023-03-31T13:07:47.546Z,4.70
2023-03-31T13:08:47.609Z,4.50
2023-03-31T13:09:47.576Z,4.80
2023-03-31T13:10:47.664Z,4.60
2023-03-31T13:11:47.827Z,4.30
2023-03-31T13:12:47.621Z,4.70
2023-03-31T13:14:47.646Z,4.70
2023-03-31T13:15:47.675Z,4.40
2023-03-31T13:16:47.730Z,4.40
2023-03-31T13:17:47.728Z,4.50
2023-03-31T13:18:47.709Z,4.50
2023-03-31T13:19:47.756Z,4.50